Time;durP1;ratioP1;P1;durP2;ratioP2;P2;SDS_P1;SDS_P2;PMS_P1;PMS_P2;Temp;Humidity;BMP_temperature;BMP_pressure;BME280_temperature;BME280_humidity;BME280_pressure;Samples;Min_cycle;Max_cycle;Signal;HPM_P1;HPM_P2
2022/01/21 00:02:03;;;;;;;1.90;1.90;;;;;;;-0.51;59.85;99763.32;103590;1274;95774;-68
2022/01/21 00:04:31;;;;;;;2.00;2.00;;;;;;;-0.52;59.89;99768.54;103640;1274;138240;-67
2022/01/21 00:06:59;;;;;;;1.90;1.90;;;;;;;-0.52;60.13;99773.95;103579;1274;109740;-68
2022/01/21 00:09:27;;;;;;;1.90;1.90;;;;;;;-0.49;60.10;99777.29;103539;1274;99572;-66
2022/01/21 00:11:55;;;;;;;2.00;2.00;;;;;;;-0.48;60.15;99778.35;103449;1274;137876;-69
2022/01/21 00:14:23;;;;;;;2.00;2.00;;;;;;;-0.49;60.15;99778.34;103565;1274;95710;-69
2022/01/21 00:16:50;;;;;;;1.90;1.90;;;;;;;-0.50;59.97;99780.59;103525;1274;138225;-66
2022/01/21 00:19:20;;;;;;;1.80;1.80;;;;;;;-0.50;59.95;99780.59;103439;1277;109772;-69
2022/01/21 00:32:42;;;;;;;2.30;2.20;;;;;;;-0.54;59.93;99801.82;103735;1274;110821;-69
2022/01/21 00:35:11;;;;;;;1.90;1.90;;;;;;;-0.56;60.00;99797.11;103956;1274;139143;-67
2022/01/21 00:37:39;;;;;;;1.80;1.80;;;;;;;-0.53;59.74;99800.27;103659;1274;108012;-66
2022/01/21 00:40:13;;;;;;;2.00;2.00;;;;;;;-0.47;59.70;99807.46;103611;1274;138759;-65
2022/01/21 00:45:15;;;;;;;1.90;1.90;;;;;;;-0.46;59.43;99809.74;103601;1274;109663;-69
2022/01/21 00:47:44;;;;;;;2.20;2.10;;;;;;;-0.45;59.40;99806.61;103505;1274;138300;-66
2022/01/21 00:50:14;;;;;;;2.20;2.10;;;;;;;-0.51;58.65;99808.48;103487;1274;108879;-67
2022/01/21 00:52:42;;;;;;;2.20;2.10;;;;;;;-0.56;58.98;99808.62;103548;1274;138235;-67
2022/01/21 00:55:10;;;;;;;2.10;2.00;;;;;;;-0.54;58.90;99812.64;103640;1274;95314;-67
2022/01/21 00:57:39;;;;;;;1.90;1.90;;;;;;;-0.53;58.89;99814.91;103744;1274;109644;-68
2022/01/21 01:00:09;;;;;;;1.80;1.80;;;;;;;-0.51;58.62;99813.89;103505;1274;138413;-67
2022/01/21 01:02:38;;;;;;;1.90;1.90;;;;;;;-0.52;58.30;99810.56;103641;1274;108666;-68
2022/01/21 01:05:08;;;;;;;1.90;1.90;;;;;;;-0.52;58.37;99806.55;103463;1274;138063;-69
2022/01/21 01:07:35;;;;;;;2.00;2.00;;;;;;;-0.55;58.02;99804.25;104125;1274;95633;-68
2022/01/21 01:10:05;;;;;;;2.20;2.10;;;;;;;-0.64;57.69;99804.00;103482;1274;138436;-69
2022/01/21 01:12:58;;;;;;;2.20;2.10;;;;;;;-0.69;58.00;99801.67;103727;1274;99402;-68
2022/01/21 01:20:59;;;;;;;2.30;2.20;;;;;;;-0.82;58.49;99805.92;103420;1274;95811;-69
2022/01/21 01:23:37;;;;;;;2.10;2.10;;;;;;;-0.83;58.40;99808.16;103554;1273;139177;-68
2022/01/21 01:28:52;;;;;;;2.20;2.10;;;;;;;-0.88;58.28;99807.95;103531;1274;138058;-67
2022/01/21 01:31:20;;;;;;;2.20;2.10;;;;;;;-0.85;58.70;99805.54;103587;1274;95560;-69
2022/01/21 01:33:48;;;;;;;2.00;2.00;;;;;;;-0.81;58.72;99804.53;103660;1274;95636;-69
2022/01/21 01:36:16;;;;;;;2.20;2.10;;;;;;;-0.83;58.81;99807.13;103526;1274;137745;-67
2022/01/21 01:41:33;;;;;;;2.20;2.10;;;;;;;-0.87;58.89;99800.46;103521;1274;138330;-68
2022/01/21 01:49:37;;;;;;;1.90;1.90;;;;;;;-0.82;58.35;99798.94;103630;1274;109821;-68
2022/01/21 01:52:09;;;;;;;2.20;2.10;;;;;;;-0.82;58.98;99796.33;103514;1274;138576;-67
2022/01/21 01:54:40;;;;;;;2.60;2.50;;;;;;;-0.83;58.86;99796.48;103739;1274;108742;-69
2022/01/21 01:57:08;;;;;;;2.30;2.20;;;;;;;-0.84;59.05;99794.39;103711;1274;95170;-67
2022/01/21 01:59:37;;;;;;;2.10;2.00;;;;;;;-0.89;58.72;99795.39;103460;1274;138392;-68
2022/01/21 02:02:09;;;;;;;2.20;2.10;;;;;;;-0.86;58.59;99788.44;103624;1274;110613;-68
2022/01/21 02:04:39;;;;;;;2.00;2.00;;;;;;;-0.83;58.83;99790.74;103587;1274;138464;-69
2022/01/21 02:07:06;;;;;;;2.00;2.00;;;;;;;-0.78;58.75;99794.97;103680;1274;108947;-67
2022/01/21 02:09:35;;;;;;;2.00;2.00;;;;;;;-0.77;59.02;99794.64;103630;1275;95835;-69
2022/01/21 02:12:04;;;;;;;2.10;2.10;;;;;;;-0.75;59.22;99793.61;103977;1274;138098;-68
2022/01/21 02:14:38;;;;;;;2.00;2.00;;;;;;;-0.75;59.28;99797.63;104000;1274;108785;-68
2022/01/21 02:22:31;;;;;;;1.80;1.80;;;;;;;-0.78;58.93;99790.96;103550;1274;138154;-67
2022/01/21 02:25:11;;;;;;;1.90;1.90;;;;;;;-0.76;59.27;99785.41;104004;1274;96096;-67
2022/01/21 02:27:39;;;;;;;1.90;1.90;;;;;;;-0.74;59.13;99785.43;103610;1274;109179;-69
2022/01/21 02:30:07;;;;;;;2.20;2.10;;;;;;;-0.75;59.32;99786.29;103555;1274;138975;-69
2022/01/21 02:32:35;;;;;;;2.20;2.10;;;;;;;-0.77;59.43;99786.78;103635;1275;108944;-67
2022/01/21 02:35:04;;;;;;;1.90;1.90;;;;;;;-0.72;59.50;99782.82;103455;1275;139266;-69
2022/01/21 02:37:32;;;;;;;1.80;1.80;;;;;;;-0.69;58.94;99782.67;103713;1274;95154;-69
2022/01/21 02:39:59;;;;;;;1.80;1.80;;;;;;;-0.69;58.92;99786.70;103554;1274;137923;-67
2022/01/21 02:42:27;;;;;;;2.00;2.00;;;;;;;-0.69;58.82;99781.82;103612;1274;100068;-69
2022/01/21 02:44:55;;;;;;;1.90;1.90;;;;;;;-0.71;58.98;99781.63;103534;1275;109358;-68
2022/01/21 02:47:23;;;;;;;1.90;1.90;;;;;;;-0.69;59.27;99786.16;103509;1274;138553;-67
2022/01/21 02:49:54;;;;;;;2.30;2.20;;;;;;;-0.69;59.47;99791.04;103640;1274;95153;-69
2022/01/21 02:52:26;;;;;;;1.90;1.90;;;;;;;-0.67;59.32;99792.48;103603;1274;139120;-69
2022/01/21 02:54:54;;;;;;;2.00;2.00;;;;;;;-0.67;59.24;99789.85;103632;1274;99374;-69
2022/01/21 02:57:22;;;;;;;1.80;1.80;;;;;;;-0.69;59.32;99789.31;103607;1274;108836;-69
2022/01/21 02:59:50;;;;;;;1.90;1.90;;;;;;;-0.71;59.10;99790.34;103566;1274;138520;-67
2022/01/21 03:02:19;;;;;;;2.00;2.00;;;;;;;-0.71;59.63;99790.16;103951;1274;96915;-67
2022/01/21 03:05:04;;;;;;;2.00;2.00;;;;;;;-0.77;59.00;99786.44;103769;1274;138318;-66
2022/01/21 03:07:32;;;;;;;2.00;2.00;;;;;;;-0.78;59.47;99786.78;103676;1274;98762;-67
2022/01/21 03:10:00;;;;;;;1.80;1.80;;;;;;;-0.76;59.23;99790.98;103430;1275;139218;-69
2022/01/21 03:12:28;;;;;;;1.80;1.80;;;;;;;-0.76;59.36;99795.34;103664;1274;95489;-67
2022/01/21 03:14:56;;;;;;;2.00;2.00;;;;;;;-0.78;59.64;99792.19;103615;1274;95235;-69
2022/01/21 03:17:24;;;;;;;1.90;1.90;;;;;;;-0.80;59.26;99792.70;103526;1274;138001;-66
2022/01/21 03:19:52;;;;;;;2.00;2.00;;;;;;;-0.84;59.26;99789.35;103666;1274;98382;-69
2022/01/21 03:22:19;;;;;;;2.10;2.00;;;;;;;-0.94;59.48;99796.91;103506;1274;138520;-67
2022/01/21 03:24:47;;;;;;;2.00;2.00;;;;;;;-0.99;59.89;99799.64;103616;1276;95259;-67
2022/01/21 03:27:16;;;;;;;2.00;2.00;;;;;;;-0.97;60.01;99793.58;103686;1275;95579;-69
2022/01/21 03:29:44;;;;;;;2.00;2.00;;;;;;;-0.96;59.95;99792.02;103471;1274;137888;-69
2022/01/21 03:32:13;;;;;;;2.00;2.00;;;;;;;-0.94;60.10;99794.11;103759;1274;98461;-67
2022/01/21 03:34:41;;;;;;;2.10;2.00;;;;;;;-0.92;59.98;99797.62;103615;1274;138464;-67
2022/01/21 03:37:09;;;;;;;1.90;1.90;;;;;;;-0.89;60.10;99796.96;103899;1274;95262;-66
2022/01/21 03:39:36;;;;;;;2.00;2.00;;;;;;;-0.89;60.53;99797.13;103573;1275;95964;-70
2022/01/21 03:42:05;;;;;;;2.10;2.00;;;;;;;-0.82;60.24;99806.79;103547;1274;139184;-69
2022/01/21 03:44:33;;;;;;;2.20;2.10;;;;;;;-0.80;59.99;99805.60;103726;1274;98920;-67
2022/01/21 03:47:01;;;;;;;1.90;1.90;;;;;;;-0.78;59.93;99804.22;103507;1274;139865;-67
2022/01/21 03:49:36;;;;;;;1.90;1.90;;;;;;;-0.79;59.94;99800.02;103645;1274;95986;-68
2022/01/21 03:52:05;;;;;;;1.90;1.90;;;;;;;-0.83;60.12;99792.48;103458;1274;138514;-69
2022/01/21 03:54:35;;;;;;;2.10;2.10;;;;;;;-0.81;60.49;99802.25;103708;1274;110527;-69
2022/01/21 03:57:04;;;;;;;2.00;2.00;;;;;;;-0.76;60.27;99812.25;103945;1274;99499;-68
2022/01/21 03:59:32;;;;;;;2.00;2.00;;;;;;;-0.71;60.16;99808.64;103504;1274;138708;-67
2022/01/21 04:02:01;;;;;;;2.00;2.00;;;;;;;-0.71;59.82;99809.87;103748;1274;95207;-67
2022/01/21 04:04:29;;;;;;;2.30;2.20;;;;;;;-0.70;59.90;99812.14;103521;1276;137982;-70
2022/01/21 04:06:58;;;;;;;2.00;2.00;;;;;;;-0.68;60.25;99813.03;103886;1274;109732;-68
2022/01/21 04:09:27;;;;;;;2.00;2.00;;;;;;;-0.69;60.23;99811.27;104215;1274;99422;-67
2022/01/21 04:11:55;;;;;;;1.80;1.80;;;;;;;-0.66;60.26;99805.37;103546;1274;139091;-69
2022/01/21 04:14:23;;;;;;;1.90;1.90;;;;;;;-0.61;60.18;99811.17;103674;1274;95246;-68
2022/01/21 04:16:51;;;;;;;1.90;1.90;;;;;;;-0.61;59.87;99817.27;103542;1274;137853;-68
2022/01/21 04:19:19;;;;;;;2.30;2.20;;;;;;;-0.58;60.20;99811.73;103580;1274;109695;-69
2022/01/21 04:21:47;;;;;;;2.10;2.00;;;;;;;-0.59;60.14;99817.65;103629;1277;99348;-69
2022/01/21 04:24:16;;;;;;;2.00;2.00;;;;;;;-0.60;60.37;99824.61;103835;1273;137991;-69
2022/01/21 04:26:44;;;;;;;2.20;2.10;;;;;;;-0.59;60.59;99823.23;103681;1274;97176;-67
2022/01/21 04:29:15;;;;;;;1.80;1.80;;;;;;;-0.56;60.32;99823.95;103572;1274;138405;-66
2022/01/21 04:31:47;;;;;;;1.80;1.80;;;;;;;-0.54;60.21;99826.77;103802;1274;109327;-68
2022/01/21 04:34:17;;;;;;;1.90;1.90;;;;;;;-0.53;60.57;99822.41;103799;1274;139452;-67
2022/01/21 04:36:45;;;;;;;1.90;1.90;;;;;;;-0.50;60.56;99831.15;103496;1277;108755;-68
2022/01/21 04:39:20;;;;;;;2.10;2.00;;;;;;;-0.52;60.65;99832.36;103742;1274;95745;-69
2022/01/21 04:47:19;;;;;;;1.70;1.70;;;;;;;-0.44;60.48;99837.30;103597;1274;138044;-67
2022/01/21 04:49:50;;;;;;;1.80;1.80;;;;;;;-0.44;60.47;99837.33;103714;1274;108287;-67
2022/01/21 04:52:20;;;;;;;1.80;1.80;;;;;;;-0.45;60.63;99835.02;103366;1276;138631;-67
2022/01/21 04:54:58;;;;;;;1.90;1.90;;;;;;;-0.46;61.00;99838.69;103633;1275;95130;-67
2022/01/21 04:57:30;;;;;;;1.90;1.90;;;;;;;-0.45;60.92;99839.92;103592;1274;109732;-69
2022/01/21 04:59:58;;;;;;;1.90;1.90;;;;;;;-0.39;60.95;99837.89;103684;1273;138485;-68
2022/01/21 05:02:30;;;;;;;2.30;2.20;;;;;;;-0.35;60.79;99843.84;103625;1277;108010;-67
2022/01/21 05:04:58;;;;;;;1.80;1.80;;;;;;;-0.35;60.87;99847.68;103676;1275;138382;-69
2022/01/21 05:07:28;;;;;;;1.80;1.80;;;;;;;-0.36;60.71;99847.14;103653;1274;95285;-68
2022/01/21 05:09:56;;;;;;;1.90;1.90;;;;;;;-0.38;61.42;99848.70;103408;1277;138883;-69
2022/01/21 05:12:26;;;;;;;1.90;1.90;;;;;;;-0.37;61.08;99849.41;103677;1274;99342;-69
2022/01/21 05:17:31;;;;;;;1.80;1.80;;;;;;;-0.30;60.92;99855.05;103558;1274;137948;-67
2022/01/21 05:19:59;;;;;;;1.90;1.90;;;;;;;-0.30;61.19;99858.89;103693;1274;95316;-68
2022/01/21 05:22:45;;;;;;;2.00;2.00;;;;;;;-0.29;61.16;99861.17;103530;1274;139380;-68
2022/01/21 05:25:17;;;;;;;1.80;1.80;;;;;;;-0.24;61.49;99863.31;103599;1274;99541;-69
2022/01/21 05:27:50;;;;;;;1.80;1.80;;;;;;;-0.17;60.88;99856.91;103572;1276;108786;-68
2022/01/21 05:30:18;;;;;;;1.80;1.80;;;;;;;-0.14;61.12;99859.02;103446;1274;138420;-70
2022/01/21 05:33:15;;;;;;;1.70;1.70;;;;;;;-0.18;60.61;99861.62;103588;1274;95574;-67
2022/01/21 05:35:49;;;;;;;1.80;1.80;;;;;;;-0.17;60.95;99858.48;103519;1274;138016;-67
2022/01/21 05:38:33;;;;;;;1.90;1.90;;;;;;;-0.17;60.84;99862.52;103574;1274;99850;-67
2022/01/21 05:41:27;;;;;;;1.80;1.80;;;;;;;-0.13;61.03;99858.35;103554;1274;138119;-66
2022/01/21 05:47:21;;;;;;;2.10;2.00;;;;;;;-0.14;60.51;99868.98;103617;1274;138211;-68
2022/01/21 05:49:56;;;;;;;1.90;1.90;;;;;;;-0.21;61.06;99880.27;103691;1274;109700;-67
2022/01/21 05:52:56;;;;;;;1.80;1.80;;;;;;;-0.27;60.87;99877.41;103516;1274;138938;-69
2022/01/21 05:55:43;;;;;;;1.70;1.70;;;;;;;-0.24;61.05;99885.81;103591;1274;107809;-69
2022/01/21 05:58:16;;;;;;;1.70;1.70;;;;;;;-0.23;61.08;99886.52;103503;1274;138172;-69
2022/01/21 06:00:46;;;;;;;1.90;1.90;;;;;;;-0.15;61.01;99886.59;103578;1274;96950;-69
2022/01/21 06:03:15;;;;;;;1.70;1.70;;;;;;;-0.11;61.05;99885.58;103621;1274;110030;-69
2022/01/21 06:05:43;;;;;;;1.90;1.90;;;;;;;-0.15;60.94;99881.88;103468;1277;137850;-67
2022/01/21 06:08:11;;;;;;;1.90;1.90;;;;;;;-0.11;60.92;99883.14;103664;1274;108847;-69
2022/01/21 06:10:39;;;;;;;1.80;1.80;;;;;;;-0.06;60.83;99881.44;103376;1274;138601;-68
2022/01/21 06:13:07;;;;;;;1.70;1.70;;;;;;;-0.09;60.76;99877.23;103552;1274;95228;-68
2022/01/21 06:15:35;;;;;;;1.70;1.70;;;;;;;-0.12;61.09;99887.48;103479;1276;109744;-67
2022/01/21 06:18:03;;;;;;;1.70;1.70;;;;;;;-0.16;61.06;99888.16;103552;1274;137952;-69
2022/01/21 06:20:31;;;;;;;1.90;1.90;;;;;;;-0.21;61.02;99886.72;103432;1274;109431;-69
2022/01/21 06:22:58;;;;;;;1.70;1.70;;;;;;;-0.21;61.00;99894.05;103422;1274;139291;-67
2022/01/21 06:25:26;;;;;;;1.70;1.70;;;;;;;-0.17;61.55;99899.83;103650;1274;95115;-67
2022/01/21 06:27:54;;;;;;;1.80;1.80;;;;;;;-0.10;61.45;99895.52;103651;1276;110268;-67
2022/01/21 06:30:22;;;;;;;1.80;1.80;;;;;;;-0.08;61.32;99895.20;103460;1274;137885;-66
2022/01/21 06:32:50;;;;;;;1.80;1.80;;;;;;;-0.06;61.48;99903.95;103649;1274;108917;-67
2022/01/21 06:35:18;;;;;;;1.90;1.90;;;;;;;-0.05;61.53;99906.05;103479;1277;139079;-67
2022/01/21 06:37:46;;;;;;;1.80;1.80;;;;;;;-0.02;61.31;99905.73;103624;1274;95122;-67
2022/01/21 06:40:15;;;;;;;1.70;1.70;;;;;;;-0.02;61.06;99909.04;103508;1274;137926;-67
2022/01/21 06:42:44;;;;;;;1.60;1.60;;;;;;;-0.04;61.25;99911.98;104629;1274;98395;-67
2022/01/21 06:45:12;;;;;;;1.60;1.60;;;;;;;-0.05;61.77;99924.38;103595;1274;108756;-69
2022/01/21 06:47:39;;;;;;;1.90;1.90;;;;;;;0.01;61.41;99927.92;103452;1275;139190;-69
2022/01/21 06:50:08;;;;;;;1.70;1.70;;;;;;;0.08;61.37;99931.82;103689;1274;96751;-67
2022/01/21 06:52:36;;;;;;;1.80;1.80;;;;;;;0.09;61.39;99936.02;103596;1274;137936;-68
2022/01/21 06:55:05;;;;;;;1.60;1.60;;;;;;;0.12;61.34;99933.59;103739;1275;99497;-66
2022/01/21 06:57:38;;;;;;;1.60;1.60;;;;;;;0.10;61.19;99935.50;103830;1274;107797;-67
2022/01/21 07:00:09;;;;;;;2.20;2.10;;;;;;;0.10;61.28;99938.11;103655;1274;137857;-67
2022/01/21 07:02:37;;;;;;;1.80;1.80;;;;;;;0.07;61.13;99934.78;103879;1274;95132;-69
2022/01/21 07:05:07;;;;;;;1.70;1.70;;;;;;;0.10;61.45;99937.07;103607;1274;138009;-69
2022/01/21 07:07:34;;;;;;;1.70;1.70;;;;;;;0.13;61.51;99941.27;104037;1274;99516;-68
2022/01/21 07:10:05;;;;;;;1.70;1.70;;;;;;;0.16;61.59;99940.95;103898;1274;137716;-67
2022/01/21 07:12:36;;;;;;;2.10;2.00;;;;;;;0.15;61.21;99946.19;103878;1274;97155;-68
2022/01/21 07:15:09;;;;;;;1.70;1.70;;;;;;;0.15;61.16;99955.45;104179;1274;95228;-68
2022/01/21 07:17:38;;;;;;;1.60;1.60;;;;;;;0.14;61.12;99960.68;103709;1274;137881;-67
2022/01/21 07:20:06;;;;;;;1.70;1.70;;;;;;;0.16;60.99;99961.73;103627;1274;99348;-70
2022/01/21 07:22:34;;;;;;;1.80;1.80;;;;;;;0.16;61.15;99960.34;103815;1274;138372;-68
2022/01/21 07:25:03;;;;;;;1.70;1.70;;;;;;;0.11;60.61;99962.92;103647;1274;95239;-71
2022/01/21 07:27:31;;;;;;;1.80;1.80;;;;;;;0.03;60.91;99967.03;103718;1274;95130;-69
2022/01/21 07:30:00;;;;;;;1.90;1.90;;;;;;;0.04;61.08;99964.05;103547;1274;138576;-69
2022/01/21 07:32:27;;;;;;;1.60;1.60;;;;;;;0.04;60.86;99968.60;103715;1275;98367;-68
2022/01/21 07:34:55;;;;;;;1.70;1.70;;;;;;;0.05;60.86;99970.37;103582;1274;138130;-67
2022/01/21 07:37:23;;;;;;;1.80;1.80;;;;;;;0.07;60.74;99970.21;104465;1274;95223;-69
2022/01/21 07:39:51;;;;;;;1.90;1.90;;;;;;;0.07;60.82;99970.73;104335;1277;95138;-67
2022/01/21 07:42:19;;;;;;;1.70;1.70;;;;;;;0.12;60.92;99972.35;103302;1275;137864;-67
2022/01/21 07:44:47;;;;;;;1.80;1.80;;;;;;;0.22;60.66;99972.96;103354;1274;99369;-70
2022/01/21 07:47:15;;;;;;;1.70;1.70;;;;;;;0.23;60.28;99967.39;103377;1274;136883;-68
2022/01/21 07:49:43;;;;;;;1.70;1.70;;;;;;;0.26;60.36;99972.30;103522;1274;96017;-68
2022/01/21 07:52:12;;;;;;;1.70;1.70;;;;;;;0.27;60.04;99973.52;103494;1274;138118;-69
2022/01/21 07:54:39;;;;;;;1.70;1.70;;;;;;;0.25;60.21;99974.38;103564;1274;110122;-69
2022/01/21 07:57:08;;;;;;;1.70;1.70;;;;;;;0.22;60.01;99973.48;103550;1277;98895;-67
2022/01/21 07:59:36;;;;;;;1.80;1.80;;;;;;;0.26;59.82;99973.35;103464;1275;139038;-67
2022/01/21 08:02:05;;;;;;;1.70;1.70;;;;;;;0.31;59.85;99979.84;103522;1274;95233;-67
2022/01/21 08:04:33;;;;;;;1.70;1.70;;;;;;;0.33;59.49;99977.77;103779;1274;138491;-67
2022/01/21 08:07:01;;;;;;;1.50;1.50;;;;;;;0.34;59.38;99981.61;103460;1274;109761;-69
2022/01/21 08:09:29;;;;;;;1.70;1.70;;;;;;;0.36;59.52;99983.02;103459;1274;97956;-68
2022/01/21 08:11:57;;;;;;;1.70;1.70;;;;;;;0.35;59.30;99986.52;103450;1274;137582;-69
2022/01/21 08:14:25;;;;;;;1.70;1.70;;;;;;;0.41;59.25;99988.15;103575;1275;95535;-68
2022/01/21 08:16:54;;;;;;;1.70;1.70;;;;;;;0.49;59.23;99991.17;103470;1274;137244;-68
2022/01/21 08:19:22;;;;;;;1.50;1.50;;;;;;;0.55;58.61;99987.38;103509;1274;109942;-67
2022/01/21 08:21:50;;;;;;;1.50;1.50;;;;;;;0.63;58.83;99985.17;103616;1274;99631;-66
2022/01/21 08:24:18;;;;;;;1.60;1.60;;;;;;;0.71;58.45;99989.41;103508;1275;137351;-70
2022/01/21 08:26:46;;;;;;;1.60;1.60;;;;;;;0.76;58.08;99991.90;103633;1275;95221;-72
2022/01/21 08:29:14;;;;;;;1.60;1.60;;;;;;;0.84;58.12;99990.73;103546;1274;137580;-68
2022/01/21 08:31:42;;;;;;;1.60;1.60;;;;;;;0.91;57.61;99988.85;104539;1274;109751;-67
2022/01/21 08:34:10;;;;;;;1.70;1.70;;;;;;;1.00;57.67;99996.42;103613;1275;137814;-68
2022/01/21 08:36:41;;;;;;;1.60;1.60;;;;;;;1.04;57.09;100004.14;103643;1274;109047;-66
2022/01/21 08:39:08;;;;;;;1.70;1.70;;;;;;;1.08;57.34;100002.77;103573;1275;95621;-67
2022/01/21 08:41:36;;;;;;;1.70;1.70;;;;;;;1.07;56.68;100005.54;103576;1274;138081;-67
2022/01/21 08:44:04;;;;;;;1.60;1.60;;;;;;;1.02;57.30;100006.23;103673;1274;110028;-66
2022/01/21 08:46:32;;;;;;;1.70;1.70;;;;;;;0.99;56.86;100009.00;103590;1276;138598;-67
2022/01/21 08:49:07;;;;;;;1.60;1.60;;;;;;;1.01;56.71;100015.13;103660;1275;109332;-69
2022/01/21 08:51:47;;;;;;;1.60;1.60;;;;;;;1.06;57.04;100015.70;103672;1274;96163;-67
2022/01/21 08:54:16;;;;;;;1.60;1.60;;;;;;;1.08;56.26;100019.20;103640;1274;137829;-67
2022/01/21 08:56:47;;;;;;;1.40;1.40;;;;;;;1.06;56.74;100021.45;103717;1274;109609;-67
2022/01/21 08:59:17;;;;;;;1.60;1.60;;;;;;;1.05;57.26;100031.06;103756;1274;138585;-68
2022/01/21 09:01:46;;;;;;;1.50;1.50;;;;;;;1.05;57.55;100031.41;103655;1275;108942;-68
2022/01/21 09:04:14;;;;;;;1.50;1.50;;;;;;;1.06;57.80;100035.80;103651;1274;138144;-67
2022/01/21 09:06:41;;;;;;;1.50;1.50;;;;;;;1.08;57.82;100037.73;103599;1274;95716;-69
2022/01/21 09:09:09;;;;;;;1.70;1.70;;;;;;;1.09;57.57;100037.73;103594;1274;109763;-69
2022/01/21 09:11:37;;;;;;;1.50;1.50;;;;;;;1.12;58.04;100040.02;103560;1274;138776;-69
2022/01/21 09:14:05;;;;;;;1.70;1.70;;;;;;;1.11;57.83;100041.25;103618;1274;108406;-68
2022/01/21 09:16:33;;;;;;;1.50;1.50;;;;;;;1.12;58.17;100045.98;103554;1275;138157;-68
2022/01/21 09:19:03;;;;;;;1.60;1.60;;;;;;;1.16;57.88;100047.40;103489;1274;96969;-68
2022/01/21 09:21:35;;;;;;;1.60;1.60;;;;;;;1.17;57.97;100045.83;103569;1274;109672;-68
2022/01/21 09:24:05;;;;;;;1.60;1.60;;;;;;;1.19;57.96;100041.64;103728;1275;137904;-69
2022/01/21 09:26:33;;;;;;;1.60;1.60;;;;;;;1.14;57.50;100039.00;103707;1274;108964;-67
2022/01/21 09:29:03;;;;;;;1.60;1.60;;;;;;;1.10;57.89;100038.79;103620;1277;138309;-68
2022/01/21 09:31:32;;;;;;;1.50;1.50;;;;;;;1.11;58.15;100043.34;103671;1274;95743;-68
2022/01/21 09:34:20;;;;;;;1.60;1.60;;;;;;;1.09;57.80;100044.20;103773;1274;138352;-66
2022/01/21 09:36:48;;;;;;;1.60;1.60;;;;;;;1.13;58.08;100049.30;103705;1277;99392;-69
2022/01/21 09:39:16;;;;;;;1.50;1.50;;;;;;;1.12;57.86;100045.98;103612;1275;108016;-66
2022/01/21 09:41:45;;;;;;;1.60;1.60;;;;;;;1.10;57.99;100047.70;103552;1275;138032;-66
2022/01/21 09:44:15;;;;;;;1.60;1.60;;;;;;;1.12;57.67;100045.63;103691;1274;95204;-67
2022/01/21 09:46:46;;;;;;;1.50;1.50;;;;;;;1.12;58.00;100050.34;103638;1274;138230;-66
2022/01/21 09:49:27;;;;;;;1.50;1.50;;;;;;;1.11;57.92;100051.91;103825;1275;100694;-68
2022/01/21 09:52:04;;;;;;;1.60;1.60;;;;;;;1.06;57.87;100046.98;103715;1274;108797;-68
2022/01/21 09:54:48;;;;;;;1.40;1.40;;;;;;;1.07;58.07;100049.61;103586;1274;138232;-67
2022/01/21 09:57:21;;;;;;;1.40;1.40;;;;;;;1.12;57.52;100048.95;103610;1277;95859;-67
2022/01/21 09:59:51;;;;;;;1.40;1.40;;;;;;;1.13;57.84;100050.70;103788;1274;137582;-67
2022/01/21 10:02:21;;;;;;;1.40;1.40;;;;;;;1.16;57.88;100046.17;103677;1274;99925;-67
2022/01/21 10:04:51;;;;;;;1.50;1.50;;;;;;;1.18;57.59;100045.30;103481;1274;138007;-67
2022/01/21 10:07:20;;;;;;;1.60;1.60;;;;;;;1.22;57.76;100044.11;103862;1274;95735;-67
2022/01/21 10:09:49;;;;;;;1.60;1.60;;;;;;;1.27;57.22;100043.96;104489;1275;95989;-66
2022/01/21 10:12:17;;;;;;;1.40;1.40;;;;;;;1.28;57.24;100041.88;103508;1275;138757;-65
2022/01/21 10:14:46;;;;;;;1.50;1.50;;;;;;;1.31;57.19;100039.45;103681;1274;99873;-66
2022/01/21 10:17:14;;;;;;;1.60;1.60;;;;;;;1.33;57.11;100039.27;103515;1275;137784;-68
2022/01/21 10:19:48;;;;;;;1.50;1.50;;;;;;;1.30;56.89;100030.86;103578;1274;95246;-67
2022/01/21 10:22:26;;;;;;;1.60;1.60;;;;;;;1.26;56.69;100025.77;103551;1274;95227;-66
2022/01/21 10:25:00;;;;;;;1.50;1.50;;;;;;;1.24;56.81;100023.48;103561;1276;137704;-66
2022/01/21 10:27:30;;;;;;;1.50;1.50;;;;;;;1.20;55.83;100024.34;103581;1274;100045;-65
2022/01/21 10:29:59;;;;;;;1.50;1.50;;;;;;;1.19;55.88;100024.33;103477;1274;138068;-66
2022/01/21 10:32:41;;;;;;;1.50;1.50;;;;;;;1.27;55.38;100015.63;103654;1274;95235;-69
2022/01/21 10:35:32;;;;;;;1.40;1.40;;;;;;;1.62;55.22;100006.88;103496;1274;138191;-66
2022/01/21 10:38:18;;;;;;;1.40;1.40;;;;;;;1.74;54.50;100003.42;103882;1274;110617;-69
2022/01/21 10:40:46;;;;;;;1.50;1.50;;;;;;;1.79;54.39;100004.65;103785;1274;138863;-64
2022/01/21 10:43:18;;;;;;;1.40;1.40;;;;;;;1.76;53.88;99999.04;103782;1274;109232;-68
2022/01/21 10:45:51;;;;;;;1.40;1.40;;;;;;;1.87;53.38;99998.72;103704;1274;95255;-66
2022/01/21 10:48:19;;;;;;;1.50;1.50;;;;;;;3.19;50.84;99996.41;103608;1274;137606;-70
2022/01/21 10:51:20;;;;;;;1.50;1.50;;;;;;;4.98;47.37;99992.27;103608;1277;109587;-70
2022/01/21 10:53:48;;;;;;;0.70;0.70;;;;;;;7.53;41.51;99979.81;103507;1274;137696;-66
2022/01/21 10:56:17;;;;;;;0.70;0.70;;;;;;;7.65;39.88;99980.97;103546;1275;108732;-68
2022/01/21 10:58:50;;;;;;;0.80;0.80;;;;;;;6.15;41.52;99987.89;103412;1274;137928;-66
2022/01/21 11:01:23;;;;;;;0.80;0.80;;;;;;;5.15;43.32;99994.95;103843;1275;95165;-68
2022/01/21 11:04:11;;;;;;;0.90;0.90;;;;;;;4.60;45.27;99992.15;103903;1275;109255;-68
2022/01/21 11:06:54;;;;;;;1.10;1.10;;;;;;;4.11;46.06;99986.18;103445;1275;139061;-67
2022/01/21 11:09:25;;;;;;;1.00;1.00;;;;;;;3.59;46.97;99991.58;103657;1275;108774;-68
2022/01/21 11:12:16;;;;;;;1.10;1.10;;;;;;;3.30;48.00;99994.13;103442;1275;137757;-68
2022/01/21 11:15:03;;;;;;;1.20;1.20;;;;;;;2.99;48.48;100006.48;103841;1277;95223;-67
2022/01/21 11:17:31;;;;;;;1.20;1.20;;;;;;;2.77;49.25;100010.36;103930;1275;137789;-66
2022/01/21 11:20:16;;;;;;;1.30;1.30;;;;;;;2.66;50.11;100006.52;104152;1274;98383;-66
2022/01/21 11:22:53;;;;;;;1.30;1.30;;;;;;;2.40;50.22;100002.83;103683;1275;138094;-68
2022/01/21 11:25:44;;;;;;;1.40;1.40;;;;;;;2.26;51.25;100006.51;103584;1275;95221;-66
2022/01/21 11:28:20;;;;;;;1.30;1.30;;;;;;;2.19;51.83;100010.17;103672;1274;95639;-67
2022/01/21 11:30:50;;;;;;;1.40;1.40;;;;;;;2.12;51.82;100012.79;103470;1274;138178;-67
2022/01/21 11:33:19;;;;;;;1.50;1.50;;;;;;;2.08;51.89;100007.02;103632;1275;99515;-66
2022/01/21 11:35:51;;;;;;;1.40;1.40;;;;;;;2.01;52.24;100008.56;103568;1274;138524;-66
2022/01/21 11:38:22;;;;;;;1.30;1.30;;;;;;;2.08;52.56;100011.37;103655;1275;95117;-65
2022/01/21 11:40:51;;;;;;;1.30;1.30;;;;;;;2.09;52.64;100010.16;103479;1274;138514;-68
2022/01/21 11:43:20;;;;;;;1.40;1.40;;;;;;;2.07;52.41;100005.77;103618;1275;109803;-66
2022/01/21 11:48:50;;;;;;;1.40;1.40;;;;;;;2.08;52.96;100003.50;103510;1275;138185;-65
2022/01/21 11:51:26;;;;;;;1.40;1.40;;;;;;;2.02;52.69;100003.48;103660;1274;95861;-69
2022/01/21 11:54:15;;;;;;;1.30;1.30;;;;;;;1.96;52.79;100009.60;103494;1275;140696;-67
2022/01/21 11:56:46;;;;;;;1.40;1.40;;;;;;;1.97;52.84;100015.20;103555;1275;109774;-67
2022/01/21 11:59:53;;;;;;;1.40;1.40;;;;;;;1.95;53.20;100010.13;103452;1274;138569;-67
2022/01/21 12:02:26;;;;;;;1.40;1.40;;;;;;;2.02;53.09;100012.77;103381;1275;108157;-66
2022/01/21 12:04:56;;;;;;;1.30;1.30;;;;;;;2.06;52.96;100013.83;103593;1274;138569;-65
2022/01/21 12:07:33;;;;;;;1.30;1.30;;;;;;;2.05;52.75;100019.43;103953;1274;95258;-65
2022/01/21 12:10:05;;;;;;;1.30;1.30;;;;;;;2.10;52.56;100014.71;103369;1275;109713;-66
2022/01/21 12:12:45;;;;;;;1.40;1.40;;;;;;;2.19;52.31;100009.99;103667;1274;137946;-64
2022/01/21 12:20:50;;;;;;;1.50;1.50;;;;;;;2.20;51.40;100009.83;103210;1274;95233;-65
2022/01/21 12:23:21;;;;;;;1.50;1.50;;;;;;;2.12;50.91;100017.70;102727;1274;138599;-67
2022/01/21 12:26:10;;;;;;;1.40;1.40;;;;;;;2.10;51.56;100023.12;103188;1277;97960;-67
2022/01/21 12:28:44;;;;;;;1.30;1.30;;;;;;;2.07;51.32;100029.95;102655;1275;138357;-66
2022/01/21 12:31:16;;;;;;;1.40;1.40;;;;;;;1.99;51.33;100039.37;103787;1274;96331;-66
2022/01/21 12:34:15;;;;;;;1.30;1.30;;;;;;;1.87;51.10;100041.09;103223;1274;96899;-65
2022/01/21 12:37:07;;;;;;;1.40;1.40;;;;;;;1.79;51.51;100040.71;103845;1275;138872;-67